Time;durP1;ratioP1;P1;durP2;ratioP2;P2;SDS_P1;SDS_P2;PMS_P1;PMS_P2;Temp;Humidity;BMP_temperature;BMP_pressure;BME280_temperature;BME280_humidity;BME280_pressure;Samples;Min_cycle;Max_cycle;Signal;HPM_P1;HPM_P2
2022/07/26 00:01:32;;;;;;;6.25;1.23;;;22.50;52.60;;;;;;5020870;28;20104;-67
2022/07/26 00:03:58;;;;;;;6.75;1.40;;;22.50;52.60;;;;;;5024554;28;20037;-67
2022/07/26 00:06:24;;;;;;;7.55;1.10;;;22.50;52.70;;;;;;5030936;28;20033;-67
2022/07/26 00:08:50;;;;;;;6.38;1.08;;;22.50;52.70;;;;;;5029837;28;20108;-67
2022/07/26 00:11:17;;;;;;;5.65;1.30;;;22.50;52.90;;;;;;5026488;28;20507;-68
2022/07/26 00:13:43;;;;;;;5.70;1.25;;;22.50;53.10;;;;;;5016324;28;20033;-67
2022/07/26 00:16:09;;;;;;;6.70;1.38;;;22.50;53.20;;;;;;5024966;28;20033;-67
2022/07/26 00:18:35;;;;;;;6.88;1.23;;;22.50;53.20;;;;;;5029819;28;20025;-68
2022/07/26 00:21:00;;;;;;;7.63;1.20;;;22.50;53.20;;;;;;5029347;28;20631;-67
2022/07/26 00:23:26;;;;;;;3.90;1.00;;;22.50;53.30;;;;;;5025376;28;20032;-67
2022/07/26 00:25:52;;;;;;;4.57;0.90;;;22.50;53.40;;;;;;5026929;28;20083;-68
2022/07/26 00:28:18;;;;;;;5.78;1.35;;;22.40;53.30;;;;;;5026113;28;20034;-67
2022/07/26 00:30:45;;;;;;;6.95;1.20;;;;;;;;;;5025179;28;20034;-67
2022/07/26 00:33:11;;;;;;;5.95;1.17;;;22.40;52.60;;;;;;5023209;28;20030;-68
2022/07/26 00:35:37;;;;;;;4.45;1.10;;;22.40;53.50;;;;;;5023346;28;20111;-68
2022/07/26 00:38:02;;;;;;;9.18;1.30;;;22.40;53.60;;;;;;5031441;28;20037;-68
2022/07/26 00:40:28;;;;;;;7.78;1.50;;;22.40;53.70;;;;;;5031306;28;20030;-68
2022/07/26 00:42:54;;;;;;;7.43;1.25;;;22.40;53.70;;;;;;5031313;28;20025;-68
2022/07/26 00:45:20;;;;;;;7.75;1.20;;;22.40;53.80;;;;;;5024887;28;20052;-68
2022/07/26 00:47:46;;;;;;;6.78;1.23;;;22.40;54.00;;;;;;5021789;28;20017;-68
2022/07/26 00:50:15;;;;;;;9.70;1.50;;;22.40;54.20;;;;;;5032211;28;20025;-68
2022/07/26 00:52:42;;;;;;;4.57;1.00;;;22.40;54.20;;;;;;5030605;28;20500;-68
2022/07/26 00:55:08;;;;;;;6.75;1.17;;;22.40;54.40;;;;;;5032889;28;20045;-68
2022/07/26 00:57:34;;;;;;;9.13;1.30;;;22.30;54.60;;;;;;5034027;28;20641;-68
2022/07/26 01:00:03;;;;;;;5.10;1.35;;;22.30;54.70;;;;;;5031766;28;20086;-68
2022/07/26 01:02:29;;;;;;;7.85;1.27;;;22.30;54.90;;;;;;5029267;28;20100;-67
2022/07/26 01:04:54;;;;;;;7.07;1.20;;;22.30;55.10;;;;;;5030882;28;20049;-67
2022/07/26 01:07:22;;;;;;;4.57;1.10;;;22.20;55.30;;;;;;5021228;28;20471;-67
2022/07/26 01:09:47;;;;;;;6.50;1.30;;;22.20;55.40;;;;;;5027587;28;20120;-67
2022/07/26 01:12:13;;;;;;;6.25;1.30;;;22.20;55.80;;;;;;5029918;28;20113;-68
2022/07/26 01:14:42;;;;;;;5.05;1.10;;;22.20;56.00;;;;;;5029461;28;20132;-68
2022/07/26 01:17:08;;;;;;;6.00;1.20;;;22.10;56.20;;;;;;5019964;28;20045;-68
2022/07/26 01:19:34;;;;;;;8.65;1.17;;;22.10;55.60;;;;;;5031828;28;20049;-68
2022/07/26 01:22:00;;;;;;;6.63;1.35;;;22.10;56.50;;;;;;5033392;28;20029;-67
2022/07/26 01:24:25;;;;;;;6.57;1.10;;;22.10;56.60;;;;;;5026312;28;20496;-67
2022/07/26 01:26:51;;;;;;;5.93;1.10;;;22.10;56.70;;;;;;5024880;28;20030;-68
2022/07/26 01:29:17;;;;;;;6.80;1.20;;;22.00;56.90;;;;;;5022320;28;20527;-68
2022/07/26 01:31:42;;;;;;;6.90;1.40;;;22.00;56.90;;;;;;5025796;28;20029;-68
2022/07/26 01:34:08;;;;;;;6.63;1.35;;;22.00;56.90;;;;;;5023032;28;20088;-68
2022/07/26 01:36:34;;;;;;;10.23;1.23;;;22.00;57.10;;;;;;5032555;28;20041;-68
2022/07/26 01:39:00;;;;;;;6.63;1.30;;;22.00;56.40;;;;;;5032867;28;20088;-68
2022/07/26 01:41:25;;;;;;;6.20;1.10;;;21.90;57.20;;;;;;5030337;28;20025;-68
2022/07/26 01:43:51;;;;;;;9.77;1.50;;;21.90;57.30;;;;;;5020315;28;20444;-68
2022/07/26 01:46:17;;;;;;;9.30;1.10;;;21.90;57.40;;;;;;5028506;28;20603;-68
2022/07/26 01:48:42;;;;;;;6.40;1.13;;;21.90;57.40;;;;;;5027782;28;20029;-68
2022/07/26 01:51:08;;;;;;;6.00;1.00;;;21.90;57.50;;;;;;5030207;28;20029;-68
2022/07/26 01:53:34;;;;;;;4.82;1.10;;;21.90;57.50;;;;;;5019929;28;20049;-68
2022/07/26 01:55:59;;;;;;;7.07;0.93;;;21.80;57.60;;;;;;5029730;28;20035;-67
2022/07/26 01:58:25;;;;;;;6.95;1.27;;;21.80;57.60;;;;;;5019966;28;20125;-67
2022/07/26 02:00:51;;;;;;;5.55;1.25;;;21.80;57.70;;;;;;5029553;28;20035;-67
2022/07/26 02:03:16;;;;;;;8.05;1.45;;;21.80;57.70;;;;;;5022674;28;20061;-67
2022/07/26 02:05:42;;;;;;;9.25;1.30;;;21.80;57.70;;;;;;5031546;28;20040;-67
2022/07/26 02:08:09;;;;;;;8.40;1.27;;;21.80;57.80;;;;;;5029448;28;20476;-68
2022/07/26 02:13:19;;;;;;;9.02;1.17;;;21.80;57.90;;;;;;5032360;28;20131;-68
2022/07/26 02:15:44;;;;;;;7.18;1.63;;;21.80;57.80;;;;;;5025512;28;20429;-67
2022/07/26 02:18:10;;;;;;;5.57;1.05;;;21.80;57.80;;;;;;5029956;28;20018;-67
2022/07/26 02:20:36;;;;;;;6.80;1.20;;;21.80;57.80;;;;;;5031701;28;20072;-67
2022/07/26 02:23:03;;;;;;;6.57;1.10;;;21.80;57.80;;;;;;5030299;28;20026;-67
2022/07/26 02:25:28;;;;;;;7.25;1.30;;;21.80;57.80;;;;;;5019173;28;20046;-67
2022/07/26 02:27:55;;;;;;;6.38;1.10;;;21.80;57.90;;;;;;5023395;28;20022;-67
2022/07/26 02:30:20;;;;;;;4.65;1.20;;;21.80;57.90;;;;;;5019395;28;20592;-67
2022/07/26 02:32:46;;;;;;;6.60;1.23;;;21.80;57.30;;;;;;5026292;28;20108;-67
2022/07/26 02:35:12;;;;;;;5.47;1.30;;;21.80;58.10;;;;;;5026898;28;20033;-67
2022/07/26 02:37:41;;;;;;;5.53;1.30;;;21.80;58.20;;;;;;5028005;28;20056;-67
2022/07/26 02:40:07;;;;;;;7.05;1.10;;;21.70;58.20;;;;;;5027277;28;20108;-67
2022/07/26 02:42:33;;;;;;;7.88;1.65;;;21.70;58.30;;;;;;5026328;28;20083;-67
2022/07/26 02:44:59;;;;;;;9.25;1.35;;;21.70;58.40;;;;;;5019644;28;20068;-67
2022/07/26 02:47:24;;;;;;;7.38;1.40;;;21.70;58.50;;;;;;5031916;28;20021;-67
2022/07/26 02:49:50;;;;;;;8.30;1.50;;;21.70;58.60;;;;;;5027473;28;20037;-68
2022/07/26 02:52:16;;;;;;;7.22;1.40;;;21.70;58.80;;;;;;5030747;28;20496;-67
2022/07/26 02:54:42;;;;;;;7.35;1.33;;;21.70;58.80;;;;;;5026630;28;20112;-67
2022/07/26 02:57:08;;;;;;;6.40;1.10;;;21.60;58.70;;;;;;5030775;28;20032;-67
2022/07/26 02:59:33;;;;;;;7.78;1.27;;;21.60;58.80;;;;;;5030970;28;20036;-67
2022/07/26 03:01:59;;;;;;;6.65;1.30;;;21.60;58.00;;;;;;5028662;28;20033;-67
2022/07/26 03:04:25;;;;;;;6.65;1.50;;;21.60;58.80;;;;;;5029574;28;20064;-67
2022/07/26 03:06:50;;;;;;;6.60;1.20;;;21.60;58.90;;;;;;5024270;28;20030;-67
2022/07/26 03:09:16;;;;;;;6.47;1.27;;;21.70;58.90;;;;;;5026039;28;20033;-67
2022/07/26 03:11:42;;;;;;;6.15;1.20;;;21.60;59.00;;;;;;5032134;28;20028;-67
2022/07/26 03:14:07;;;;;;;7.13;1.20;;;21.60;58.90;;;;;;5026594;28;20034;-67
2022/07/26 03:16:33;;;;;;;5.70;1.20;;;21.60;59.00;;;;;;5020315;28;20122;-67
2022/07/26 03:19:00;;;;;;;6.40;1.35;;;21.60;59.00;;;;;;5027376;28;20037;-67
2022/07/26 03:21:26;;;;;;;6.65;1.30;;;21.60;59.30;;;;;;5028494;28;20111;-68
2022/07/26 03:23:52;;;;;;;5.10;1.30;;;21.60;59.40;;;;;;5023509;28;20026;-67
2022/07/26 03:26:18;;;;;;;7.07;1.20;;;21.60;58.70;;;;;;5021642;28;20041;-68
2022/07/26 03:28:44;;;;;;;5.22;1.40;;;21.50;59.50;;;;;;5028611;28;20099;-67
2022/07/26 03:31:11;;;;;;;12.27;1.70;;;21.50;59.70;;;;;;5022854;28;20065;-67
2022/07/26 03:33:38;;;;;;;6.85;1.25;;;21.50;59.90;;;;;;5028916;28;20481;-67
2022/07/26 03:36:04;;;;;;;6.68;1.30;;;21.50;60.00;;;;;;5029096;28;20026;-68
2022/07/26 03:38:30;;;;;;;5.75;1.40;;;21.50;60.10;;;;;;5017377;28;20120;-68
2022/07/26 03:40:56;;;;;;;5.93;1.10;;;21.40;60.20;;;;;;5028553;28;20124;-67
2022/07/26 03:43:21;;;;;;;7.72;1.35;;;21.40;60.40;;;;;;5018368;28;20486;-67
2022/07/26 03:45:47;;;;;;;8.20;1.50;;;21.40;60.40;;;;;;5028000;28;20041;-67
2022/07/26 03:48:13;;;;;;;6.45;1.55;;;21.30;60.40;;;;;;5025646;28;20029;-67
2022/07/26 03:50:39;;;;;;;7.43;1.15;;;21.30;60.40;;;;;;5023402;28;20029;-67
2022/07/26 03:53:04;;;;;;;6.20;1.20;;;21.30;60.30;;;;;;5026582;28;20022;-67
2022/07/26 03:58:15;;;;;;;5.05;1.55;;;21.30;60.40;;;;;;5014137;28;20118;-68
2022/07/26 04:00:41;;;;;;;6.22;1.30;;;21.30;60.30;;;;;;5023887;28;20021;-67
2022/07/26 04:03:07;;;;;;;6.53;1.50;;;21.30;60.30;;;;;;5023415;28;20058;-67
2022/07/26 04:05:33;;;;;;;6.50;1.30;;;21.30;60.20;;;;;;5026163;28;20057;-67
2022/07/26 04:07:58;;;;;;;6.57;1.30;;;21.30;60.20;;;;;;5015579;28;20440;-67
2022/07/26 04:10:24;;;;;;;7.65;1.40;;;21.30;60.10;;;;;;5017055;28;20038;-68
2022/07/26 04:12:50;;;;;;;7.32;1.45;;;21.30;60.30;;;;;;5022519;28;20487;-69
2022/07/26 04:15:17;;;;;;;6.88;1.45;;;21.30;60.30;;;;;;5027764;28;20029;-68
2022/07/26 04:17:43;;;;;;;5.15;1.38;;;21.20;60.50;;;;;;5027213;28;20388;-68
2022/07/26 04:20:10;;;;;;;6.32;1.40;;;21.20;60.60;;;;;;5028101;28;20037;-68
2022/07/26 04:22:38;;;;;;;6.85;1.48;;;21.20;60.80;;;;;;5029045;28;20037;-68
2022/07/26 04:25:05;;;;;;;6.38;1.40;;;21.20;60.20;;;;;;5030358;28;20037;-68
2022/07/26 04:27:31;;;;;;;7.55;1.80;;;21.10;61.00;;;;;;5022459;28;20022;-68
2022/07/26 04:29:57;;;;;;;6.88;1.40;;;21.10;61.10;;;;;;5027579;28;20525;-68
2022/07/26 04:32:23;;;;;;;6.00;1.45;;;21.10;61.20;;;;;;5015564;28;20064;-68
2022/07/26 04:34:49;;;;;;;6.22;1.40;;;21.10;61.20;;;;;;5020956;28;20033;-68
2022/07/26 04:37:15;;;;;;;5.88;1.30;;;21.10;61.30;;;;;;5026339;28;20396;-68
2022/07/26 04:39:40;;;;;;;6.60;1.40;;;21.10;61.40;;;;;;5029774;28;20103;-67
2022/07/26 04:42:06;;;;;;;7.13;1.58;;;21.10;61.20;;;;;;5020745;28;20029;-68
2022/07/26 04:44:32;;;;;;;7.80;1.58;;;21.10;61.20;;;;;;5026377;28;20025;-69
2022/07/26 04:46:57;;;;;;;6.90;1.48;;;21.10;61.20;;;;;;5024774;28;20026;-68
2022/07/26 04:49:23;;;;;;;8.23;1.48;;;21.10;61.10;;;;;;5027152;28;20030;-68
2022/07/26 04:51:49;;;;;;;7.57;1.45;;;21.10;61.10;;;;;;5028498;28;20033;-68
2022/07/26 04:54:19;;;;;;;5.82;1.60;;;21.10;61.10;;;;;;5027212;28;20042;-68
2022/07/26 04:56:45;;;;;;;6.80;1.60;;;21.10;61.10;;;;;;5022967;28;20543;-68
2022/07/26 04:59:12;;;;;;;9.05;1.30;;;21.10;61.20;;;;;;5015057;28;20083;-68
2022/07/26 05:01:38;;;;;;;5.22;1.48;;;21.10;61.40;;;;;;5019108;28;20033;-68
2022/07/26 05:04:04;;;;;;;13.40;2.03;;;21.10;61.40;;;;;;5025643;28;20035;-68
2022/07/26 05:06:31;;;;;;;6.88;1.50;;;21.10;61.40;;;;;;5027898;28;20052;-68
2022/07/26 05:08:57;;;;;;;4.70;1.50;;;21.10;61.50;;;;;;5029379;28;20060;-69
2022/07/26 05:11:23;;;;;;;5.82;1.30;;;21.10;61.60;;;;;;5027835;28;20021;-68
2022/07/26 05:13:49;;;;;;;7.30;1.67;;;21.10;61.50;;;;;;5019865;28;20028;-68
2022/07/26 05:16:15;;;;;;;6.70;1.58;;;21.20;61.60;;;;;;5019365;28;20041;-66
2022/07/26 05:18:41;;;;;;;6.65;1.58;;;21.10;61.60;;;;;;5029291;28;20029;-68
2022/07/26 05:21:07;;;;;;;7.03;1.80;;;21.20;61.70;;;;;;5028395;28;20025;-68
2022/07/26 05:23:33;;;;;;;6.35;1.70;;;21.20;61.80;;;;;;5031557;28;20090;-67
2022/07/26 05:25:59;;;;;;;8.77;1.35;;;21.10;62.00;;;;;;5022813;28;20083;-67
2022/07/26 05:28:24;;;;;;;6.82;1.75;;;21.10;61.90;;;;;;5020246;28;20119;-68
2022/07/26 05:30:50;;;;;;;8.85;1.58;;;21.10;61.80;;;;;;5031750;28;20432;-68
2022/07/26 05:33:16;;;;;;;7.50;1.98;;;21.20;61.70;;;;;;5031300;28;20017;-68
2022/07/26 05:35:42;;;;;;;8.48;1.77;;;21.20;61.70;;;;;;5032718;28;20039;-68
2022/07/26 05:38:08;;;;;;;10.85;1.70;;;21.20;61.60;;;;;;5026949;28;20088;-67
2022/07/26 05:40:33;;;;;;;9.45;1.90;;;21.20;61.60;;;;;;5026753;28;20037;-67
2022/07/26 05:42:59;;;;;;;7.68;1.35;;;21.30;61.70;;;;;;5032222;28;20167;-67
2022/07/26 05:45:25;;;;;;;7.00;1.40;;;21.30;61.70;;;;;;5018201;28;20037;-68
2022/07/26 05:47:52;;;;;;;6.82;1.33;;;21.30;61.60;;;;;;5024808;28;20095;-67
2022/07/26 05:50:18;;;;;;;4.90;1.38;;;21.30;61.60;;;;;;5023745;28;20033;-68
2022/07/26 05:52:44;;;;;;;4.43;1.30;;;21.30;61.80;;;;;;5024044;28;20033;-68
2022/07/26 05:55:11;;;;;;;6.68;1.50;;;21.30;61.50;;;;;;5009909;28;20181;-68
2022/07/26 05:57:40;;;;;;;6.95;1.50;;;21.40;61.50;;;;;;5004482;28;20029;-68
2022/07/26 06:00:08;;;;;;;9.18;1.60;;;21.40;60.80;;;;;;4993436;28;20058;-67
2022/07/26 06:02:34;;;;;;;6.95;1.45;;;21.40;60.70;;;;;;4987676;28;20042;-67
2022/07/26 06:05:00;;;;;;;4.55;1.20;;;21.40;61.50;;;;;;4981552;28;20045;-67
2022/07/26 06:07:26;;;;;;;6.53;1.50;;;21.40;61.60;;;;;;4984248;28;20540;-67
2022/07/26 06:09:55;;;;;;;5.82;1.50;;;21.40;61.40;;;;;;4982567;28;20030;-67
2022/07/26 06:12:24;;;;;;;6.18;1.42;;;21.40;62.20;;;;;;4981765;28;20018;-68
2022/07/26 06:14:50;;;;;;;9.93;1.40;;;21.40;61.20;;;;;;4983118;28;20038;-68
2022/07/26 06:17:16;;;;;;;5.35;1.30;;;21.40;61.30;;;;;;4980921;28;20073;-68
2022/07/26 06:19:42;;;;;;;8.20;1.55;;;21.50;60.40;;;;;;4987777;28;20077;-68
2022/07/26 06:22:08;;;;;;;6.40;2.38;;;21.40;61.20;;;;;;4985804;28;20030;-67
2022/07/26 06:24:33;;;;;;;7.22;1.55;;;21.40;61.20;;;;;;4983345;28;20034;-67
2022/07/26 06:26:59;;;;;;;4.93;1.40;;;21.50;60.10;;;;;;4986078;28;20038;-67
2022/07/26 06:29:25;;;;;;;8.05;1.27;;;21.50;60.10;;;;;;4983525;28;20034;-67
2022/07/26 06:31:52;;;;;;;7.32;1.23;;;21.60;60.10;;;;;;4990038;28;20042;-67
2022/07/26 06:34:18;;;;;;;8.40;1.50;;;21.50;60.90;;;;;;4987009;28;20870;-67
2022/07/26 06:36:44;;;;;;;4.75;1.10;;;21.60;60.20;;;;;;4985432;28;20168;-67
2022/07/26 06:39:09;;;;;;;3.03;1.17;;;21.60;61.00;;;;;;4983490;28;20414;-68
2022/07/26 06:41:35;;;;;;;6.82;1.30;;;21.60;61.10;;;;;;4985418;28;20494;-68
2022/07/26 06:44:01;;;;;;;7.72;1.10;;;21.60;61.00;;;;;;4985970;28;20125;-68
2022/07/26 06:46:27;;;;;;;7.82;1.35;;;21.60;60.90;;;;;;5018182;28;20057;-68
2022/07/26 06:48:54;;;;;;;6.10;1.65;;;21.60;60.80;;;;;;4976328;28;20109;-68
2022/07/26 06:51:20;;;;;;;7.20;1.30;;;21.70;60.90;;;;;;4975354;28;20038;-67
2022/07/26 06:54:04;;;;;;;8.32;1.13;;;21.70;60.90;;;;;;4976036;28;20046;-67
2022/07/26 06:56:50;;;;;;;5.13;1.33;;;21.80;61.00;;;;;;4984057;28;20034;-67
2022/07/26 06:59:33;;;;;;;7.53;1.10;;;21.70;61.00;;;;;;4984414;28;20026;-66
2022/07/26 07:02:00;;;;;;;6.68;1.23;;;21.70;59.90;;;;;;4981836;28;20054;-66
2022/07/26 07:04:28;;;;;;;4.32;1.23;;;21.70;60.70;;;;;;4977236;28;20069;-66
2022/07/26 07:06:53;;;;;;;4.70;1.15;;;21.70;60.80;;;;;;4984804;28;20046;-66
2022/07/26 07:09:19;;;;;;;6.68;1.38;;;21.80;60.70;;;;;;4981392;28;20396;-67
2022/07/26 07:11:48;;;;;;;4.95;1.00;;;21.90;60.70;;;;;;4985655;28;20065;-67
2022/07/26 07:14:13;;;;;;;5.30;1.25;;;22.00;60.40;;;;;;4985054;28;20030;-67
2022/07/26 07:16:39;;;;;;;9.98;0.98;;;22.00;59.90;;;;;;4987067;28;20026;-66
2022/07/26 07:19:05;;;;;;;6.63;1.27;;;22.20;59.60;;;;;;4983333;28;20057;-66
2022/07/26 07:21:32;;;;;;;7.35;1.40;;;22.30;59.40;;;;;;4980335;28;20030;-66
2022/07/26 07:23:58;;;;;;;7.75;1.40;;;22.40;59.00;;;;;;4977737;28;20092;-68
2022/07/26 07:26:24;;;;;;;8.38;1.70;;;22.50;58.60;;;;;;4972048;28;20168;-67
2022/07/26 07:28:50;;;;;;;7.68;1.38;;;22.50;58.00;;;;;;4981275;28;20661;-67
2022/07/26 07:31:16;;;;;;;8.27;1.33;;;22.60;57.70;;;;;;4981936;28;20026;-67
2022/07/26 07:33:42;;;;;;;8.80;1.35;;;22.60;57.20;;;;;;4976769;28;20101;-67
2022/07/26 07:36:07;;;;;;;7.22;1.40;;;22.60;57.20;;;;;;4986193;28;20042;-67
2022/07/26 07:38:33;;;;;;;6.65;1.38;;;22.60;57.20;;;;;;4978636;28;20019;-67
2022/07/26 07:40:59;;;;;;;7.10;1.67;;;22.70;56.90;;;;;;4982447;28;20054;-67
2022/07/26 07:43:25;;;;;;;6.95;1.30;;;22.70;56.60;;;;;;4982371;28;20034;-67
2022/07/26 07:45:50;;;;;;;6.78;1.33;;;22.80;56.50;;;;;;4984164;28;20505;-67
2022/07/26 07:48:17;;;;;;;5.90;1.20;;;22.90;56.30;;;;;;4981219;28;20038;-67
2022/07/26 07:50:42;;;;;;;7.40;1.20;;;23.00;55.60;;;;;;4984459;28;20049;-67
2022/07/26 07:53:08;;;;;;;6.32;1.35;;;23.20;55.40;;;;;;4983012;28;20034;-67
2022/07/26 07:55:34;;;;;;;7.10;1.60;;;23.30;54.80;;;;;;4973865;28;20062;-67
2022/07/26 07:57:59;;;;;;;9.20;1.20;;;23.40;54.50;;;;;;4979414;28;20031;-67
2022/07/26 08:00:26;;;;;;;6.45;1.17;;;23.60;53.90;;;;;;4977446;28;20049;-67
2022/07/26 08:02:52;;;;;;;4.18;1.17;;;23.90;52.90;;;;;;4974826;28;20054;-67
2022/07/26 08:05:18;;;;;;;6.97;1.45;;;24.20;51.80;;;;;;4976318;28;20053;-67
2022/07/26 08:07:43;;;;;;;5.18;1.30;;;24.30;51.20;;;;;;4975266;28;20026;-67
2022/07/26 08:10:09;;;;;;;6.70;1.40;;;24.60;50.30;;;;;;4984322;28;20080;-67
2022/07/26 08:12:36;;;;;;;5.78;1.05;;;24.80;49.90;;;;;;4979540;28;20113;-67
2022/07/26 08:15:03;;;;;;;5.63;1.13;;;24.90;49.20;;;;;;4974930;28;20130;-67
2022/07/26 08:17:30;;;;;;;5.57;1.10;;;25.00;48.60;;;;;;4978255;28;20080;-68
2022/07/26 08:19:55;;;;;;;6.53;1.00;;;25.10;47.80;;;;;;4981350;28;20408;-68
2022/07/26 08:22:21;;;;;;;20.15;1.60;;;25.10;46.50;;;;;;4978265;28;20774;-68
2022/07/26 08:24:47;;;;;;;7.15;0.95;;;25.20;45.00;;;;;;4979280;28;20048;-67
2022/07/26 08:27:13;;;;;;;3.97;0.80;;;25.30;44.70;;;;;;4980239;28;20039;-67
2022/07/26 08:29:39;;;;;;;8.35;1.30;;;25.30;44.00;;;;;;4984382;28;20054;-67
2022/07/26 08:32:05;;;;;;;6.05;0.82;;;25.40;43.80;;;;;;4978657;28;20715;-67
2022/07/26 08:34:31;;;;;;;3.70;0.93;;;25.50;43.30;;;;;;4978192;28;20042;-67
2022/07/26 08:36:57;;;;;;;11.27;0.93;;;25.70;43.10;;;;;;4978774;28;20037;-67
2022/07/26 08:39:25;;;;;;;10.15;1.20;;;26.00;42.40;;;;;;4979456;28;20031;-67
2022/07/26 08:41:50;;;;;;;19.88;1.67;;;26.20;41.20;;;;;;4980302;28;20845;-67
2022/07/26 08:44:16;;;;;;;5.07;0.95;;;26.50;41.20;;;;;;4980124;28;20026;-67
2022/07/26 08:46:42;;;;;;;8.15;1.00;;;26.70;39.20;;;;;;4981798;28;20050;-67
2022/07/26 08:49:09;;;;;;;6.40;1.00;;;26.70;40.00;;;;;;4979249;28;20555;-67
2022/07/26 08:51:42;;;;;;;3.35;0.70;;;26.60;39.00;;;;;;4984164;28;20030;-67
2022/07/26 08:54:09;;;;;;;5.47;0.98;;;26.70;38.60;;;;;;4982317;28;20538;-68
2022/07/26 08:56:36;;;;;;;15.02;1.67;;;26.80;37.60;;;;;;4982478;28;22152;-66
2022/07/26 08:59:04;;;;;;;11.00;1.15;;;26.70;38.20;;;;;;4981566;28;20031;-67
2022/07/26 09:01:29;;;;;;;12.35;1.10;;;26.80;38.20;;;;;;4988630;28;20069;-67
2022/07/26 09:03:55;;;;;;;4.53;0.68;;;27.00;37.80;;;;;;4986622;28;20027;-66
2022/07/26 09:06:22;;;;;;;4.65;0.93;;;27.10;37.60;;;;;;4985532;28;20412;-66
2022/07/26 09:08:52;;;;;;;5.20;0.85;;;27.10;37.40;;;;;;4986361;28;20026;-68
2022/07/26 09:11:29;;;;;;;12.10;1.30;;;27.80;35.20;;;;;;4987108;28;20035;-67
2022/07/26 09:13:59;;;;;;;12.32;1.60;;;27.80;36.00;;;;;;4983269;28;20038;-67
2022/07/26 09:16:25;;;;;;;8.10;1.10;;;27.80;36.40;;;;;;4987611;28;21655;-69
2022/07/26 09:18:52;;;;;;;6.47;0.82;;;27.60;35.70;;;;;;4982581;28;20027;-69
2022/07/26 09:21:32;;;;;;;5.20;0.90;;;27.50;35.50;;;;;;4984892;28;20033;-67
2022/07/26 09:23:58;;;;;;;4.57;0.80;;;27.30;35.70;;;;;;4985500;28;20030;-67
2022/07/26 09:26:24;;;;;;;4.97;0.80;;;27.20;36.10;;;;;;4978425;28;20112;-67
2022/07/26 09:29:19;;;;;;;7.20;0.85;;;27.60;35.70;;;;;;4984086;28;20557;-68
2022/07/26 09:31:45;;;;;;;3.08;0.80;;;27.90;34.60;;;;;;4981180;28;20519;-68
2022/07/26 09:34:22;;;;;;;6.25;1.00;;;27.80;34.70;;;;;;4983265;28;20141;-67
2022/07/26 09:36:53;;;;;;;5.97;0.80;;;27.70;34.80;;;;;;4979912;28;20125;-67
2022/07/26 09:39:20;;;;;;;5.28;0.90;;;27.60;35.20;;;;;;4979945;28;20039;-67
2022/07/26 09:41:46;;;;;;;4.38;0.77;;;27.60;35.60;;;;;;4982250;28;20532;-67
2022/07/26 09:44:25;;;;;;;4.32;1.00;;;27.60;35.80;;;;;;4980437;28;20127;-67
2022/07/26 09:46:55;;;;;;;6.03;0.85;;;27.80;35.30;;;;;;4985821;28;20042;-67
2022/07/26 09:49:22;;;;;;;3.90;0.70;;;28.50;32.80;;;;;;4984511;28;20445;-67
2022/07/26 09:51:50;;;;;;;7.10;0.90;;;29.50;31.80;;;;;;4982442;28;20169;-67
2022/07/26 09:54:27;;;;;;;4.75;1.50;;;30.60;30.00;;;;;;4982831;28;20108;-67
2022/07/26 09:56:53;;;;;;;5.90;0.93;;;30.80;29.40;;;;;;4982037;28;20069;-67
2022/07/26 09:59:22;;;;;;;3.13;0.70;;;30.60;29.70;;;;;;4985725;28;20026;-67
2022/07/26 10:01:49;;;;;;;3.33;0.70;;;30.60;29.70;;;;;;4986573;28;20049;-67
2022/07/26 10:04:15;;;;;;;5.68;0.80;;;30.30;30.00;;;;;;4985370;28;20473;-67
2022/07/26 10:06:43;;;;;;;4.55;0.80;;;30.00;30.00;;;;;;4980436;28;20062;-66
2022/07/26 10:09:10;;;;;;;4.90;0.80;;;29.70;30.40;;;;;;4983018;28;20073;-66
2022/07/26 10:11:43;;;;;;;3.22;0.85;;;29.50;30.90;;;;;;4985037;28;20062;-67
2022/07/26 10:14:38;;;;;;;3.70;1.00;;;29.20;31.30;;;;;;4980414;28;20146;-68
2022/07/26 10:17:27;;;;;;;6.30;1.02;;;28.60;31.30;;;;;;4981131;28;20023;-68
2022/07/26 10:19:56;;;;;;;5.28;0.75;;;28.50;32.10;;;;;;4988877;28;20561;-68
2022/07/26 10:22:43;;;;;;;5.22;0.77;;;28.30;32.40;;;;;;4984563;28;20054;-67
2022/07/26 10:25:18;;;;;;;5.32;0.73;;;28.10;32.80;;;;;;4987509;28;20708;-68
2022/07/26 10:27:54;;;;;;;3.55;0.80;;;28.00;33.10;;;;;;4982805;28;20042;-68
2022/07/26 10:30:26;;;;;;;5.15;0.93;;;28.10;32.90;;;;;;4985954;28;20030;-68
2022/07/26 10:33:01;;;;;;;4.80;0.77;;;28.20;31.60;;;;;;4987669;28;20052;-69
2022/07/26 10:35:43;;;;;;;4.25;0.80;;;28.10;32.50;;;;;;4979215;28;20428;-68
2022/07/26 10:38:12;;;;;;;4.38;0.85;;;28.20;32.70;;;;;;4985632;28;20033;-68
2022/07/26 10:40:58;;;;;;;3.55;0.80;;;28.10;32.90;;;;;;4990365;28;20165;-68
2022/07/26 10:43:25;;;;;;;4.38;0.90;;;28.10;33.00;;;;;;4990244;28;20050;-68
2022/07/26 10:46:14;;;;;;;9.18;0.93;;;28.70;31.90;;;;;;4985785;28;20073;-68
2022/07/26 10:48:57;;;;;;;2.95;0.70;;;28.80;32.20;;;;;;4983059;28;20046;-68
2022/07/26 10:51:52;;;;;;;5.47;0.88;;;29.20;31.60;;;;;;4981970;28;20050;-68
2022/07/26 10:54:31;;;;;;;5.75;1.02;;;29.20;31.60;;;;;;4987755;28;20054;-68
2022/07/26 10:56:56;;;;;;;6.82;1.00;;;30.20;30.00;;;;;;4982952;28;20035;-68
2022/07/26 10:59:31;;;;;;;5.18;0.88;;;31.70;28.10;;;;;;4978439;28;20677;-69
2022/07/26 11:01:57;;;;;;;4.45;0.80;;;33.90;25.90;;;;;;4976143;28;20027;-68
2022/07/26 11:04:24;;;;;;;3.63;0.90;;;35.60;24.10;;;;;;4978644;28;20072;-69
2022/07/26 11:06:50;;;;;;;5.72;1.10;;;36.90;22.60;;;;;;4982824;28;20532;-69
2022/07/26 11:09:18;;;;;;;2.88;0.70;;;36.20;22.70;;;;;;4979253;28;20085;-68
2022/07/26 11:11:45;;;;;;;5.40;0.73;;;34.70;24.50;;;;;;4981785;28;20034;-69
2022/07/26 11:14:14;;;;;;;4.78;0.90;;;33.50;25.30;;;;;;4976408;28;21049;-68
2022/07/26 11:16:45;;;;;;;4.35;0.80;;;32.50;26.70;;;;;;4982091;28;20513;-68
2022/07/26 11:19:18;;;;;;;4.63;0.90;;;31.70;27.20;;;;;;4977542;28;20031;-68
2022/07/26 11:21:45;;;;;;;5.47;0.90;;;30.90;28.00;;;;;;4985949;28;20109;-68
2022/07/26 11:24:11;;;;;;;3.13;0.80;;;30.10;28.80;;;;;;4976392;28;20031;-68
2022/07/26 11:26:44;;;;;;;3.55;0.90;;;29.40;29.60;;;;;;4975532;28;20034;-67
2022/07/26 11:29:11;;;;;;;4.88;0.80;;;28.80;30.50;;;;;;4980371;28;20030;-68
2022/07/26 11:31:43;;;;;;;5.80;0.75;;;28.30;31.50;;;;;;4980251;28;20031;-67
2022/07/26 11:34:21;;;;;;;3.30;0.80;;;27.40;32.00;;;;;;4984360;28;20402;-67
2022/07/26 11:36:48;;;;;;;3.85;0.88;;;27.00;32.90;;;;;;4979482;28;20030;-67
2022/07/26 11:39:27;;;;;;;6.32;0.90;;;27.00;33.70;;;;;;4980765;28;20030;-67
2022/07/26 11:41:59;;;;;;;4.93;1.00;;;26.80;34.10;;;;;;4975306;28;20034;-67
2022/07/26 11:44:25;;;;;;;5.78;0.90;;;26.60;34.20;;;;;;4978374;28;20057;-67
2022/07/26 11:46:51;;;;;;;4.05;0.80;;;26.50;34.40;;;;;;4983646;28;20169;-67
2022/07/26 11:49:16;;;;;;;5.55;0.70;;;26.40;34.40;;;;;;4981407;28;20527;-68
2022/07/26 11:51:49;;;;;;;3.83;0.80;;;26.40;34.50;;;;;;4978081;28;20117;-67
2022/07/26 11:54:15;;;;;;;6.47;1.02;;;26.40;35.00;;;;;;4978978;28;20581;-67
2022/07/26 11:56:51;;;;;;;4.88;1.00;;;26.40;35.20;;;;;;4975983;28;20058;-67
2022/07/26 11:59:17;;;;;;;3.78;0.80;;;26.40;34.00;;;;;;4981353;28;20062;-68
2022/07/26 12:01:44;;;;;;;4.18;0.80;;;26.40;34.90;;;;;;4980282;28;20089;-68
2022/07/26 12:04:37;;;;;;;6.88;0.75;;;26.60;34.50;;;;;;4980589;28;20037;-68
2022/07/26 12:07:09;;;;;;;4.65;1.00;;;26.80;34.60;;;;;;4981824;28;20052;-68
2022/07/26 12:09:41;;;;;;;4.38;1.48;;;26.90;34.50;;;;;;4982379;28;20073;-68
2022/07/26 12:12:21;;;;;;;3.45;0.93;;;27.00;34.30;;;;;;4982238;28;20059;-67
2022/07/26 12:15:06;;;;;;;3.58;0.75;;;27.00;33.30;;;;;;4978853;28;20087;-68
2022/07/26 12:17:33;;;;;;;3.13;0.60;;;27.10;33.00;;;;;;4977571;28;20084;-67
2022/07/26 12:20:13;;;;;;;2.63;0.77;;;27.20;32.40;;;;;;4979262;28;20023;-67
2022/07/26 12:22:56;;;;;;;5.22;0.70;;;27.40;32.20;;;;;;4983056;28;20054;-67
2022/07/26 12:25:27;;;;;;;3.78;0.60;;;27.70;31.90;;;;;;4978424;28;20080;-67
2022/07/26 12:27:53;;;;;;;3.28;0.70;;;28.10;30.90;;;;;;4979882;28;20030;-67
2022/07/26 12:30:19;;;;;;;2.97;0.50;;;28.50;30.30;;;;;;4982902;28;20030;-67
2022/07/26 12:32:55;;;;;;;3.65;0.70;;;29.10;29.80;;;;;;4982285;28;20120;-67
2022/07/26 12:35:31;;;;;;;5.38;0.90;;;30.20;28.50;;;;;;4985681;28;20057;-67
2022/07/26 12:37:56;;;;;;;4.25;0.70;;;30.70;27.50;;;;;;4984585;28;20025;-67
2022/07/26 12:40:25;;;;;;;5.63;0.70;;;30.90;26.80;;;;;;4987918;28;20381;-67
2022/07/26 12:42:50;;;;;;;3.80;0.60;;;31.30;26.20;;;;;;4986591;28;20022;-67
2022/07/26 12:45:20;;;;;;;3.90;0.73;;;32.00;25.70;;;;;;4986837;28;20049;-67
2022/07/26 12:47:53;;;;;;;3.75;0.60;;;32.40;25.00;;;;;;4982685;28;20050;-67
2022/07/26 12:50:22;;;;;;;4.13;0.52;;;31.80;25.50;;;;;;4985127;28;20026;-67
2022/07/26 12:52:48;;;;;;;1.42;0.55;;;31.10;26.10;;;;;;4984913;28;20018;-67
2022/07/26 12:55:18;;;;;;;2.80;0.50;;;30.60;26.90;;;;;;4984114;28;20062;-67